Time;durP1;ratioP1;P1;durP2;ratioP2;P2;SDS_P1;SDS_P2;PMS_P1;PMS_P2;Temp;Humidity;BMP_temperature;BMP_pressure;BME280_temperature;BME280_humidity;BME280_pressure;Samples;Min_cycle;Max_cycle;Signal;HPM_P1;HPM_P2
2022/07/14 00:02:04;;;;;;;6.70;2.20;;;19.40;62.10;;;22.12;47.33;101958.50;5115719;28;20203;-61
2022/07/14 00:04:31;;;;;;;7.50;2.63;;;19.40;62.00;;;22.10;47.44;101957.91;5115455;28;20196;-60
2022/07/14 00:07:00;;;;;;;4.37;1.97;;;19.40;62.00;;;22.10;47.66;101968.63;5106673;28;20490;-60
2022/07/14 00:09:28;;;;;;;5.23;2.13;;;19.40;62.10;;;22.10;47.18;101969.44;5096122;28;20305;-60
2022/07/14 00:11:55;;;;;;;9.03;2.63;;;19.40;62.00;;;22.11;47.45;101963.03;5095085;28;20576;-60
2022/07/14 00:14:23;;;;;;;5.17;2.17;;;19.40;62.10;;;22.12;47.33;101966.53;5095531;28;20189;-60
2022/07/14 00:16:50;;;;;;;8.57;2.63;;;19.40;62.10;;;22.13;47.18;101968.19;5095829;28;20275;-57
2022/07/14 00:19:18;;;;;;;5.03;2.47;;;19.40;62.10;;;22.16;47.31;101957.00;5095837;28;20189;-60
2022/07/14 00:21:46;;;;;;;7.90;2.03;;;19.40;62.30;;;22.18;47.41;101961.09;5109215;28;20212;-60
2022/07/14 00:24:14;;;;;;;6.10;2.30;;;19.40;62.20;;;22.21;47.30;101954.47;5115795;28;20659;-59
2022/07/14 00:26:42;;;;;;;5.33;2.10;;;19.40;62.20;;;22.23;47.17;101958.59;5115837;28;20337;-59
2022/07/14 00:29:10;;;;;;;8.90;2.70;;;19.50;62.10;;;22.27;47.78;101956.28;5115562;28;20216;-59
2022/07/14 00:31:37;;;;;;;7.17;2.93;;;19.50;62.40;;;22.30;47.18;101947.78;5115076;28;20219;-59
2022/07/14 00:34:04;;;;;;;5.23;2.57;;;19.50;62.30;;;22.32;47.62;101947.56;5115215;28;20188;-60
2022/07/14 00:36:32;;;;;;;7.30;2.57;;;19.50;62.40;;;22.34;47.31;101943.63;5095936;28;20570;-57
2022/07/14 00:38:59;;;;;;;7.00;2.63;;;19.60;62.30;;;22.35;47.04;101939.88;5095371;28;20189;-59
2022/07/14 00:41:28;;;;;;;5.20;2.27;;;19.60;62.10;;;22.36;47.64;101949.59;5094366;28;20215;-58
2022/07/14 00:43:55;;;;;;;7.40;2.17;;;19.60;62.30;;;22.37;47.28;101943.16;5094361;28;20540;-59
2022/07/14 00:46:23;;;;;;;5.80;2.23;;;19.60;62.20;;;22.37;47.19;101945.06;5093393;28;20200;-58
2022/07/14 00:48:50;;;;;;;7.07;2.50;;;19.60;62.10;;;22.33;47.20;101951.88;5101921;28;20575;-58
2022/07/14 00:51:17;;;;;;;7.60;2.67;;;19.60;62.10;;;22.29;47.40;101942.66;5114887;28;20211;-57
2022/07/14 00:53:51;;;;;;;6.07;2.73;;;19.60;62.50;;;22.28;47.67;101944.50;5115302;28;20192;-57
2022/07/14 00:56:18;;;;;;;8.93;3.10;;;19.60;62.70;;;22.29;47.46;101945.31;5115250;28;20187;-58
2022/07/14 00:58:48;;;;;;;10.83;2.97;;;19.50;62.60;;;22.30;47.69;101942.41;5114631;28;20195;-59
2022/07/14 01:01:15;;;;;;;8.33;2.30;;;19.60;62.60;;;22.27;47.80;101943.66;5114780;28;20204;-59
2022/07/14 01:03:43;;;;;;;8.07;2.50;;;19.60;62.70;;;22.27;47.90;101932.16;5100214;28;20196;-59
2022/07/14 01:06:10;;;;;;;7.13;2.47;;;19.50;63.00;;;22.31;47.61;101937.88;5112950;28;20191;-59
2022/07/14 01:08:37;;;;;;;7.20;3.00;;;19.60;62.90;;;22.34;47.97;101937.44;5115420;28;20188;-59
2022/07/14 01:11:07;;;;;;;6.13;2.23;;;19.60;62.80;;;22.35;47.48;101934.53;5114596;28;20208;-58
2022/07/14 01:13:37;;;;;;;8.63;3.37;;;19.60;62.80;;;22.38;47.55;101935.94;5115243;28;20219;-58
2022/07/14 01:16:06;;;;;;;8.70;2.83;;;19.70;62.60;;;22.40;47.81;101926.63;5113609;28;20187;-57
2022/07/14 01:18:33;;;;;;;4.93;2.43;;;19.70;62.70;;;22.43;47.85;101931.56;5094052;28;20200;-59
2022/07/14 01:21:01;;;;;;;10.37;2.70;;;19.70;62.60;;;22.48;47.66;101934.38;5094099;28;20531;-60
2022/07/14 01:23:30;;;;;;;4.90;2.40;;;19.80;62.50;;;22.48;47.33;101923.66;5093851;28;20184;-59
2022/07/14 01:25:58;;;;;;;7.50;2.67;;;19.80;62.10;;;22.48;47.56;101920.97;5094203;28;20192;-59
2022/07/14 01:28:25;;;;;;;6.50;2.53;;;19.80;62.30;;;22.50;47.66;101926.94;5093833;28;20296;-60
2022/07/14 01:30:53;;;;;;;6.57;2.33;;;19.80;62.30;;;22.53;47.50;101926.50;5101103;28;20253;-59
2022/07/14 01:33:20;;;;;;;6.10;2.33;;;19.90;62.10;;;22.53;47.25;101925.66;5114067;28;20187;-59
2022/07/14 01:35:48;;;;;;;4.60;2.47;;;19.80;61.90;;;22.51;47.50;101923.19;5114431;28;20571;-59
2022/07/14 01:38:16;;;;;;;10.03;3.03;;;19.80;62.10;;;22.49;47.33;101930.66;5114052;28;20214;-59
2022/07/14 01:40:45;;;;;;;6.17;3.00;;;19.80;61.80;;;22.41;46.92;101932.81;5110079;28;20195;-61
2022/07/14 01:43:12;;;;;;;9.57;2.67;;;19.70;61.50;;;22.31;47.20;101932.50;5094354;28;20199;-59
2022/07/14 01:45:41;;;;;;;12.63;3.30;;;19.60;61.60;;;22.21;47.72;101922.28;5093180;28;20524;-59
2022/07/14 01:48:08;;;;;;;10.10;3.40;;;19.50;62.00;;;22.11;48.02;101927.34;5093583;28;20200;-60
2022/07/14 01:50:35;;;;;;;11.50;3.80;;;19.40;62.50;;;21.99;47.72;101927.25;5093439;28;20262;-59
2022/07/14 01:53:03;;;;;;;15.37;3.20;;;19.30;62.80;;;21.87;48.18;101926.31;5093318;28;20208;-59
2022/07/14 01:55:30;;;;;;;11.50;2.70;;;19.20;63.20;;;21.79;48.87;101925.75;5103232;28;20287;-59
2022/07/14 01:57:59;;;;;;;11.17;3.03;;;19.10;63.50;;;21.68;48.48;101926.47;5113822;28;20184;-59
2022/07/14 02:00:26;;;;;;;10.23;2.70;;;19.00;63.70;;;21.59;49.01;101929.41;5112982;28;20195;-60
2022/07/14 02:02:54;;;;;;;9.37;2.90;;;18.90;64.00;;;21.51;48.86;101926.97;5113662;28;20204;-59
2022/07/14 02:05:22;;;;;;;9.87;3.20;;;18.80;64.30;;;21.47;49.51;101925.78;5114597;28;20219;-59
2022/07/14 02:07:50;;;;;;;7.60;3.10;;;18.80;64.90;;;21.44;49.89;101926.22;5115362;28;20180;-59
2022/07/14 02:13:04;;;;;;;9.00;3.00;;;18.80;65.50;;;21.49;49.90;101923.69;5095774;28;20216;-59
2022/07/14 02:15:32;;;;;;;6.67;2.57;;;18.80;65.20;;;21.49;49.52;101923.69;5096019;28;20192;-60
2022/07/14 02:17:59;;;;;;;5.17;2.30;;;18.70;65.20;;;21.50;50.22;101925.34;5093334;28;20265;-59
2022/07/14 02:20:27;;;;;;;9.63;3.00;;;18.80;65.60;;;21.54;50.13;101917.69;5092563;28;20188;-60
2022/07/14 02:22:54;;;;;;;10.07;3.27;;;18.80;65.70;;;21.59;49.54;101918.69;5098171;28;20675;-60
2022/07/14 02:25:22;;;;;;;8.20;3.23;;;18.90;65.50;;;21.62;49.41;101920.13;5113371;28;20192;-59
2022/07/14 02:27:49;;;;;;;8.33;2.70;;;18.90;65.00;;;21.61;49.46;101909.63;5113325;28;20195;-59
2022/07/14 02:30:18;;;;;;;10.00;3.50;;;18.90;64.80;;;21.58;49.64;101911.66;5113534;28;20219;-60
2022/07/14 02:32:45;;;;;;;8.30;3.00;;;18.90;66.00;;;21.57;49.35;101904.69;5113918;28;20212;-59
2022/07/14 02:35:13;;;;;;;11.90;4.47;;;18.90;65.30;;;21.61;49.64;101912.31;5113742;28;20196;-58
2022/07/14 02:37:40;;;;;;;9.83;3.70;;;18.90;65.20;;;21.59;49.29;101913.31;5109558;28;20283;-59
2022/07/14 02:40:09;;;;;;;10.57;3.17;;;18.90;65.00;;;21.57;49.51;101922.63;5113452;28;20191;-59
2022/07/14 02:42:37;;;;;;;5.83;2.37;;;18.80;64.90;;;21.52;49.48;101928.63;5113641;28;20220;-59
2022/07/14 02:45:06;;;;;;;9.87;2.83;;;18.80;65.00;;;21.48;49.70;101921.25;5113637;28;20184;-58
2022/07/14 02:47:35;;;;;;;6.83;2.53;;;18.70;65.10;;;21.43;49.72;101927.25;5113628;28;20531;-59
2022/07/14 02:50:02;;;;;;;9.27;2.90;;;18.70;65.30;;;21.38;49.79;101921.72;5108449;28;20278;-59
2022/07/14 02:52:30;;;;;;;8.23;3.27;;;18.60;66.10;;;21.33;49.69;101929.59;5092363;28;20216;-59
2022/07/14 02:54:58;;;;;;;7.43;2.83;;;18.60;65.50;;;21.24;49.49;101925.53;5091901;28;20184;-59
2022/07/14 02:57:25;;;;;;;10.47;3.13;;;18.60;65.50;;;21.18;50.07;101926.38;5093093;28;20193;-60
2022/07/14 02:59:52;;;;;;;10.23;3.27;;;18.50;65.60;;;21.13;49.94;101920.03;5092608;28;20189;-59
2022/07/14 03:02:20;;;;;;;6.53;2.60;;;18.40;65.70;;;21.05;49.79;101923.78;5092095;28;20211;-60
2022/07/14 03:04:48;;;;;;;7.10;2.50;;;18.30;65.60;;;20.98;50.26;101917.63;5103829;28;20211;-59
2022/07/14 03:07:16;;;;;;;8.17;3.00;;;18.30;66.00;;;20.92;50.19;101913.09;5116464;28;20192;-60
2022/07/14 03:09:44;;;;;;;8.50;3.03;;;18.20;66.50;;;20.93;50.59;101912.06;5116981;28;20215;-60
2022/07/14 03:12:11;;;;;;;6.20;2.70;;;18.20;66.80;;;20.94;50.70;101919.09;5116431;28;20208;-60
2022/07/14 03:14:38;;;;;;;8.03;3.03;;;18.30;66.90;;;20.97;50.71;101909.81;5116825;28;20270;-60
2022/07/14 03:17:06;;;;;;;8.17;2.40;;;18.20;66.70;;;20.94;50.18;101924.44;5116912;27;20180;-58
2022/07/14 03:19:33;;;;;;;12.43;2.77;;;18.20;66.50;;;20.88;50.27;101923.44;5098596;28;20189;-59
2022/07/14 03:22:02;;;;;;;6.60;2.90;;;18.20;66.50;;;20.82;50.15;101934.16;5096288;28;20581;-60
2022/07/14 03:24:30;;;;;;;6.43;2.63;;;18.10;66.40;;;20.76;50.36;101927.81;5096658;28;20188;-59
2022/07/14 03:26:58;;;;;;;6.17;2.70;;;18.10;66.70;;;20.71;50.57;101940.16;5096358;28;20196;-60
2022/07/14 03:29:27;;;;;;;8.73;3.10;;;18.00;66.90;;;20.67;50.71;101931.75;5096598;28;20219;-59
2022/07/14 03:31:55;;;;;;;9.57;2.77;;;18.00;67.30;;;20.65;51.38;101933.81;5099780;28;20214;-59
2022/07/14 03:34:22;;;;;;;8.60;2.73;;;17.90;67.60;;;20.66;51.45;101945.31;5115868;28;20200;-59
2022/07/14 03:36:49;;;;;;;8.03;3.00;;;17.90;67.50;;;20.63;50.90;101948.44;5116907;28;20278;-60
2022/07/14 03:39:18;;;;;;;10.50;2.87;;;17.90;67.30;;;20.59;50.86;101956.06;5116538;27;20188;-58
2022/07/14 03:41:45;;;;;;;6.07;2.47;;;17.90;67.20;;;20.53;51.20;101954.22;5116093;28;20212;-59
2022/07/14 03:44:12;;;;;;;5.00;2.73;;;17.80;67.10;;;20.48;51.16;101955.88;5116303;28;20187;-60
2022/07/14 03:46:40;;;;;;;9.93;2.60;;;17.80;67.80;;;20.48;51.66;101950.53;5104876;28;20193;-59
2022/07/14 03:49:08;;;;;;;7.37;2.53;;;17.70;67.70;;;20.46;51.76;101952.59;5095441;28;20316;-57
2022/07/14 03:51:41;;;;;;;8.40;4.20;;;17.70;67.80;;;20.47;51.48;101954.22;5095167;28;20270;-59
2022/07/14 03:54:08;;;;;;;9.20;3.10;;;17.70;67.90;;;20.47;51.66;101951.56;5096080;28;20200;-59
2022/07/14 03:56:37;;;;;;;9.57;2.50;;;17.70;67.80;;;20.49;51.10;101946.84;5096023;28;20211;-60
2022/07/14 03:59:05;;;;;;;9.00;3.00;;;17.70;67.90;;;20.47;51.60;101948.88;5095855;28;20197;-60
2022/07/14 04:01:32;;;;;;;5.97;2.97;;;17.70;68.00;;;20.47;51.08;101954.22;5095521;28;20212;-59
2022/07/14 04:04:00;;;;;;;4.33;2.20;;;17.70;67.90;;;20.46;50.94;101941.91;5096436;28;20263;-58
2022/07/14 04:06:28;;;;;;;8.30;2.77;;;17.70;67.90;;;20.48;51.19;101946.00;5095843;28;20192;-58
2022/07/14 04:08:57;;;;;;;6.40;2.37;;;17.60;68.00;;;20.53;51.61;101942.69;5094210;28;20227;-59
2022/07/14 04:11:24;;;;;;;6.83;2.53;;;17.60;68.20;;;20.59;51.10;101947.19;5094906;28;20220;-59
2022/07/14 04:13:53;;;;;;;6.93;2.17;;;17.70;68.30;;;20.65;50.99;101951.72;5100554;28;20196;-59
2022/07/14 04:16:20;;;;;;;7.77;2.30;;;17.70;68.20;;;20.69;51.24;101942.22;5115220;28;20195;-59
2022/07/14 04:18:48;;;;;;;8.33;2.83;;;17.70;68.10;;;20.73;50.67;101948.78;5116114;28;20540;-59
2022/07/14 04:21:15;;;;;;;6.53;2.50;;;17.80;68.20;;;20.80;50.59;101949.63;5115443;28;20208;-57
2022/07/14 04:23:43;;;;;;;4.87;2.03;;;17.80;68.00;;;20.88;50.46;101946.69;5115448;28;20187;-58
2022/07/14 04:26:11;;;;;;;8.50;2.57;;;17.90;68.00;;;20.96;50.41;101945.63;5115664;28;20288;-58
2022/07/14 04:28:38;;;;;;;8.77;3.00;;;18.00;67.80;;;21.03;50.04;101943.75;5103271;28;20275;-59
2022/07/14 04:31:08;;;;;;;6.53;2.30;;;18.00;67.40;;;21.06;50.32;101948.72;5094863;28;20240;-59
2022/07/14 04:33:37;;;;;;;7.20;2.40;;;18.10;67.00;;;21.05;50.38;101953.25;5094678;28;20608;-58
2022/07/14 04:36:05;;;;;;;3.83;2.17;;;18.10;66.90;;;21.10;49.95;101948.06;5094949;28;20208;-59
2022/07/14 04:38:33;;;;;;;8.27;2.67;;;18.10;67.00;;;21.16;49.66;101949.88;5095197;28;20284;-59
2022/07/14 04:41:01;;;;;;;7.33;2.57;;;18.20;66.60;;;21.17;49.90;101943.50;5094361;28;20192;-60
2022/07/14 04:43:28;;;;;;;6.33;2.20;;;18.20;66.40;;;21.21;49.69;101952.72;5095182;28;20267;-60
2022/07/14 04:45:56;;;;;;;6.03;2.83;;;18.20;66.40;;;21.25;49.93;101943.22;5095153;28;20271;-60
2022/07/14 04:48:25;;;;;;;5.57;2.13;;;18.30;66.30;;;21.26;49.77;101944.88;5095014;28;20188;-60
2022/07/14 04:53:39;;;;;;;10.70;3.07;;;18.30;66.00;;;21.23;49.02;101956.00;5094973;28;20176;-59
2022/07/14 04:56:06;;;;;;;10.97;3.30;;;18.30;65.60;;;21.20;49.06;101959.16;5094863;28;20197;-59
2022/07/14 04:58:33;;;;;;;7.97;2.90;;;18.30;65.60;;;21.20;49.19;101956.47;5101376;28;20230;-61
2022/07/14 05:01:01;;;;;;;8.37;2.73;;;18.30;65.60;;;21.17;49.56;101956.88;5114199;28;20184;-56
2022/07/14 05:03:30;;;;;;;6.63;2.73;;;18.30;65.60;;;21.13;49.23;101953.00;5114799;28;20225;-58
2022/07/14 05:05:58;;;;;;;7.80;2.97;;;18.30;65.50;;;;;;5113960;28;20195;-61
2022/07/14 05:08:25;;;;;;;5.33;2.00;;;18.30;65.50;;;;;;5114641;28;20192;-60
2022/07/14 05:10:53;;;;;;;8.97;2.33;;;18.30;65.60;;;21.09;49.15;101949.09;5113971;28;20513;-60
2022/07/14 05:13:20;;;;;;;7.00;2.67;;;18.30;65.70;;;21.10;49.04;101950.75;5114470;28;20270;-59
2022/07/14 05:15:47;;;;;;;6.20;2.30;;;18.20;65.70;;;;;;5096846;28;20296;-60
2022/07/14 05:18:15;;;;;;;6.00;1.90;;;18.20;65.50;;;21.09;49.74;101954.44;5094077;28;20199;-60
2022/07/14 05:20:44;;;;;;;6.93;2.77;;;18.20;65.60;;;21.10;49.09;101950.75;5093478;28;20605;-61
2022/07/14 05:23:11;;;;;;;6.70;2.13;;;18.20;65.60;;;21.11;49.11;101952.38;5094188;28;20222;-59
2022/07/14 05:25:39;;;;;;;7.13;2.67;;;18.20;65.60;;;21.17;49.18;101956.06;5094344;28;20191;-58
2022/07/14 05:28:07;;;;;;;10.97;2.73;;;18.30;66.00;;;21.26;48.87;101954.75;5093365;28;20203;-64
2022/07/14 05:30:35;;;;;;;8.60;2.73;;;18.30;65.80;;;21.34;48.97;101958.03;5093873;28;20208;-61
2022/07/14 05:33:02;;;;;;;4.03;2.13;;;18.30;65.70;;;21.39;49.06;101955.53;5093464;28;20308;-58
2022/07/14 05:35:30;;;;;;;9.33;2.77;;;18.40;65.50;;;21.44;49.07;101953.00;5092087;28;20188;-60
2022/07/14 05:37:59;;;;;;;6.77;2.33;;;18.40;65.50;;;21.48;48.89;101959.59;5092866;27;20188;-59
2022/07/14 05:40:26;;;;;;;7.40;3.43;;;18.50;65.40;;;21.55;48.96;101957.69;5093290;28;20187;-57
2022/07/14 05:42:53;;;;;;;9.30;2.70;;;18.60;65.50;;;21.63;48.34;101959.28;5093791;28;20255;-59
2022/07/14 05:45:21;;;;;;;6.83;2.70;;;18.60;65.30;;;21.72;48.94;101959.84;5093137;28;20212;-59
2022/07/14 05:47:49;;;;;;;7.50;3.17;;;18.70;65.40;;;21.83;48.42;101962.63;5094442;28;20192;-57
2022/07/14 05:50:16;;;;;;;5.13;2.20;;;18.80;65.30;;;21.94;48.28;101961.13;5093090;28;20211;-59
2022/07/14 05:52:44;;;;;;;6.53;2.67;;;18.90;64.80;;;22.01;47.66;101951.19;5093171;28;20216;-61
2022/07/14 05:55:13;;;;;;;4.63;2.03;;;19.00;64.60;;;22.11;48.15;101959.53;5093385;28;20191;-59
2022/07/14 05:57:40;;;;;;;7.20;2.10;;;19.00;64.20;;;22.14;47.41;101954.56;5092943;28;20536;-56
2022/07/14 06:00:09;;;;;;;7.20;2.67;;;19.10;63.70;;;22.17;47.27;101950.59;5092781;28;20184;-56
2022/07/14 06:02:37;;;;;;;7.07;2.50;;;19.20;63.50;;;22.22;46.98;101961.50;5092339;28;20576;-61
2022/07/14 06:05:05;;;;;;;6.33;2.40;;;19.20;63.30;;;22.29;47.20;101956.88;5092706;28;20657;-60
2022/07/14 06:07:33;;;;;;;5.87;2.00;;;19.20;63.10;;;22.31;46.74;101948.59;5093446;28;20187;-60
2022/07/14 06:10:01;;;;;;;8.63;2.27;;;19.30;62.80;;;22.35;46.47;101955.97;5092636;28;20596;-60
2022/07/14 06:12:31;;;;;;;5.53;2.43;;;19.30;62.70;;;22.45;46.65;101948.25;5092267;28;20231;-60
2022/07/14 06:14:59;;;;;;;8.20;2.50;;;19.40;63.00;;;22.62;46.52;101951.19;5092089;28;20189;-59
2022/07/14 06:17:26;;;;;;;5.83;1.60;;;19.40;62.60;;;22.78;46.18;101954.09;5092909;28;20185;-59
2022/07/14 06:19:54;;;;;;;4.97;1.90;;;19.50;62.40;;;22.94;45.80;101951.84;5096614;28;20501;-59
2022/07/14 06:22:21;;;;;;;6.53;2.23;;;19.70;62.20;;;23.10;45.41;101948.53;5112427;28;20208;-59
2022/07/14 06:24:48;;;;;;;5.50;2.20;;;19.80;61.60;;;23.22;45.09;101949.41;5113380;28;20567;-59
2022/07/14 06:27:16;;;;;;;9.07;2.30;;;19.90;61.30;;;23.28;44.95;101948.47;5112883;28;20643;-60
2022/07/14 06:29:45;;;;;;;6.90;2.23;;;20.00;60.60;;;23.30;44.73;101959.81;5113336;28;20187;-60
2022/07/14 06:32:12;;;;;;;7.60;2.53;;;20.10;60.30;;;23.30;44.55;101949.06;5112817;28;20223;-60
2022/07/14 06:34:39;;;;;;;3.80;1.93;;;20.10;60.00;;;23.30;44.47;101949.06;5113219;28;20206;-60
2022/07/14 06:37:07;;;;;;;3.73;1.83;;;20.20;60.00;;;23.34;44.54;101944.88;5111027;28;20192;-59
2022/07/14 06:39:35;;;;;;;6.97;2.13;;;20.30;60.00;;;23.39;44.41;101945.06;5113119;28;20579;-58
2022/07/14 06:42:03;;;;;;;4.57;1.83;;;20.30;59.70;;;23.40;44.32;101944.00;5116702;28;20200;-61
2022/07/14 06:44:31;;;;;;;7.73;1.87;;;20.40;59.30;;;23.43;44.07;101938.16;5116113;28;20199;-58
2022/07/14 06:46:59;;;;;;;7.80;2.63;;;20.40;59.20;;;23.47;43.88;101940.16;5116873;28;20198;-60
2022/07/14 06:49:27;;;;;;;8.43;2.37;;;20.40;59.00;;;23.47;43.54;101942.03;5117163;28;20183;-58
2022/07/14 06:51:55;;;;;;;2.67;1.90;;;20.50;58.70;;;23.42;43.67;101947.25;5116749;28;20227;-58
2022/07/14 06:54:23;;;;;;;6.33;3.30;;;20.50;58.50;;;23.36;43.75;101940.97;5097065;28;20196;-61
2022/07/14 06:56:50;;;;;;;9.60;5.47;;;20.40;58.60;;;23.34;43.88;101934.13;5096909;28;20199;-57
2022/07/14 06:59:18;;;;;;;8.47;3.30;;;20.40;58.60;;;23.33;43.78;101940.53;5096474;28;20291;-59
2022/07/14 07:01:45;;;;;;;8.77;3.53;;;20.40;58.70;;;23.38;44.04;101941.53;5095914;28;20625;-59
2022/07/14 07:04:14;;;;;;;5.67;3.23;;;20.40;58.70;;;23.49;43.85;101937.22;5096526;28;20587;-61
2022/07/14 07:06:44;;;;;;;13.40;3.53;;;20.40;58.80;;;23.64;43.38;101929.56;5097135;28;20219;-59
2022/07/14 07:09:13;;;;;;;7.27;3.00;;;20.50;58.80;;;23.77;43.30;101933.91;5101079;28;20192;-58
2022/07/14 07:11:41;;;;;;;7.93;3.27;;;20.50;58.70;;;23.87;43.31;101934.94;5116012;28;20218;-57
2022/07/14 07:14:08;;;;;;;9.23;3.10;;;20.60;58.70;;;23.99;43.11;101933.09;5116790;27;20187;-60
2022/07/14 07:16:36;;;;;;;7.80;3.27;;;20.70;58.40;;;24.07;42.70;101932.78;5116528;28;20188;-60
2022/07/14 07:19:04;;;;;;;7.37;3.00;;;20.80;58.20;;;24.15;42.92;101932.41;5114917;28;20183;-59
2022/07/14 07:21:33;;;;;;;6.33;2.33;;;20.90;58.30;;;24.23;42.45;101934.75;5116294;28;20208;-59
2022/07/14 07:24:01;;;;;;;4.90;2.10;;;21.00;57.40;;;24.22;41.64;101925.03;5116400;28;20215;-59
2022/07/14 07:26:34;;;;;;;9.93;2.73;;;21.00;56.00;;;24.21;41.31;101920.72;5102223;28;20606;-60
2022/07/14 07:29:02;;;;;;;5.53;3.23;;;21.10;55.90;;;24.31;41.52;101919.31;5096211;28;20660;-58
2022/07/14 07:31:31;;;;;;;9.37;2.47;;;21.20;56.10;;;24.50;40.93;101926.19;5095927;28;20250;-60
2022/07/14 07:33:58;;;;;;;5.20;2.00;;;21.30;55.80;;;24.65;40.86;101915.72;5096281;28;20217;-58
2022/07/14 07:36:26;;;;;;;4.77;2.30;;;21.40;55.50;;;24.76;40.58;101917.56;5095969;28;20661;-60
2022/07/14 07:38:55;;;;;;;5.37;2.00;;;21.40;55.10;;;24.80;39.42;101913.34;5095866;28;20200;-58
2022/07/14 07:41:23;;;;;;;5.33;2.07;;;21.50;53.90;;;24.77;39.75;101908.47;5096333;28;20279;-60
2022/07/14 07:43:50;;;;;;;5.67;2.07;;;21.50;54.00;;;24.74;39.50;101915.13;5096076;28;20256;-60
2022/07/14 07:46:18;;;;;;;4.20;1.97;;;21.50;53.00;;;24.68;38.69;101921.44;5095946;28;20189;-60
2022/07/14 07:48:46;;;;;;;9.30;2.90;;;21.50;52.90;;;24.65;38.97;101910.34;5095781;28;20204;-60
2022/07/14 07:51:13;;;;;;;9.47;2.37;;;21.50;52.80;;;24.64;38.97;101909.53;5093568;28;20270;-60
2022/07/14 07:53:43;;;;;;;3.97;2.20;;;21.50;52.40;;;24.72;38.61;101906.44;5115352;28;20187;-60
2022/07/14 07:56:12;;;;;;;5.30;2.73;;;21.50;52.40;;;24.86;38.47;101893.56;5116635;28;20208;-61
2022/07/14 07:58:39;;;;;;;8.00;2.63;;;21.60;52.70;;;25.04;38.07;101896.03;5116245;28;20192;-59
2022/07/14 08:01:08;;;;;;;5.67;2.33;;;21.70;52.70;;;25.11;37.51;101885.09;5115621;28;20238;-58
2022/07/14 08:03:37;;;;;;;3.07;2.30;;;21.80;51.70;;;25.13;36.86;101891.06;5115779;28;20233;-60
2022/07/14 08:06:11;;;;;;;4.33;2.13;;;21.90;50.20;;;25.13;36.77;101891.88;5109322;28;20534;-59
2022/07/14 08:08:58;;;;;;;3.60;1.93;;;21.90;50.20;;;25.20;37.26;101892.56;5094293;28;20253;-59
2022/07/14 08:11:27;;;;;;;6.83;2.00;;;22.00;50.30;;;25.32;37.12;101890.59;5094355;28;20341;-59
2022/07/14 08:13:55;;;;;;;6.10;1.90;;;22.10;50.60;;;25.49;36.58;101891.47;5095167;28;20211;-57
2022/07/14 08:16:22;;;;;;;7.57;2.30;;;22.10;50.70;;;25.74;37.11;101898.34;5095450;28;20199;-58
2022/07/14 08:18:52;;;;;;;3.27;1.70;;;22.20;50.70;;;25.81;36.70;101888.19;5094992;28;20196;-60
2022/07/14 08:21:20;;;;;;;6.13;1.80;;;22.30;50.40;;;25.70;36.45;101886.41;5094156;28;20269;-60
2022/07/14 08:23:47;;;;;;;5.57;1.67;;;22.40;49.70;;;25.57;36.30;101887.56;5095373;28;20196;-58
2022/07/14 08:26:14;;;;;;;5.87;2.67;;;22.40;49.90;;;25.85;36.81;101878.53;5094913;28;20189;-61
2022/07/14 08:28:43;;;;;;;5.30;3.30;;;22.40;50.30;;;27.19;35.31;101877.78;5094996;28;20220;-59
2022/07/14 08:31:11;;;;;;;5.13;2.90;;;22.70;50.80;;;28.76;32.48;101877.69;5094410;28;20208;-59
2022/07/14 08:33:40;;;;;;;5.27;2.47;;;23.20;49.80;;;29.44;31.13;101881.88;5095116;28;20246;-60
2022/07/14 08:36:08;;;;;;;3.63;1.70;;;23.80;48.50;;;29.30;31.15;101874.53;5094884;28;20532;-60
2022/07/14 08:38:35;;;;;;;4.57;2.20;;;24.30;47.00;;;28.96;31.43;101871.50;5094447;28;20302;-61
2022/07/14 08:41:02;;;;;;;2.67;2.03;;;24.50;46.20;;;28.72;31.34;101873.88;5093838;28;20525;-60
2022/07/14 08:43:31;;;;;;;6.93;2.40;;;24.60;45.20;;;28.50;31.63;101880.56;5093342;28;20189;-59
2022/07/14 08:46:04;;;;;;;7.30;2.53;;;24.60;45.00;;;29.01;31.29;101876.09;5094549;28;20193;-59
2022/07/14 08:48:33;;;;;;;4.70;2.00;;;24.60;45.60;;;30.18;29.59;101864.91;5094621;28;20271;-60
2022/07/14 08:51:01;;;;;;;4.10;2.00;;;24.90;44.30;;;31.58;28.10;101865.16;5093944;28;20212;-60
2022/07/14 08:53:28;;;;;;;4.83;2.10;;;25.40;44.00;;;33.11;26.10;101852.88;5094678;28;20193;-59
2022/07/14 08:55:59;;;;;;;5.17;1.70;;;26.00;42.60;;;34.58;23.91;101857.19;5103618;28;20594;-60
2022/07/14 08:58:27;;;;;;;5.20;2.77;;;26.80;39.70;;;35.85;23.07;101852.09;5114592;27;20195;-59
2022/07/14 09:00:55;;;;;;;4.53;1.93;;;27.60;39.30;;;37.08;21.34;101855.22;5113935;28;20195;-59
2022/07/14 09:03:24;;;;;;;7.00;2.50;;;28.50;37.80;;;37.90;20.48;101848.50;5113640;28;20195;-59
2022/07/14 09:06:12;;;;;;;3.67;2.20;;;29.30;36.40;;;37.67;20.33;101849.88;5114786;28;20620;-59
2022/07/14 09:08:54;;;;;;;4.37;2.20;;;29.90;33.20;;;36.34;20.68;101853.69;5114685;28;20198;-57
2022/07/14 09:11:22;;;;;;;2.63;1.70;;;30.20;30.90;;;35.03;21.53;101849.84;5112696;28;20208;-59
2022/07/14 09:13:50;;;;;;;3.50;2.07;;;29.90;31.30;;;34.25;22.73;101849.41;5094118;28;20661;-59
2022/07/14 09:16:21;;;;;;;5.47;2.13;;;29.50;32.00;;;34.51;22.68;101842.25;5094168;28;20211;-59
2022/07/14 09:19:05;;;;;;;6.53;2.10;;;29.30;32.40;;;35.52;22.13;101840.66;5094179;28;20185;-59
2022/07/14 09:21:34;;;;;;;5.60;2.03;;;29.40;32.60;;;36.61;20.62;101839.72;5093270;28;20227;-59
2022/07/14 09:24:05;;;;;;;4.43;2.17;;;29.60;32.80;;;37.56;20.04;101832.94;5094481;28;20193;-58
2022/07/14 09:26:41;;;;;;;4.20;1.80;;;30.10;32.40;;;38.25;18.95;101836.16;5094243;28;20202;-59
2022/07/14 09:29:16;;;;;;;5.43;2.03;;;30.70;30.60;;;38.17;18.78;101834.28;5093951;28;20294;-60
2022/07/14 09:31:44;;;;;;;2.80;1.63;;;31.00;29.30;;;38.69;18.08;101839.41;5093626;28;20413;-61
2022/07/14 09:34:28;;;;;;;3.90;2.30;;;31.40;28.70;;;39.62;17.60;101832.16;5093828;28;20193;-60
2022/07/14 09:37:14;;;;;;;2.78;2.28;;;31.80;28.20;;;40.68;16.10;101829.94;5094403;28;20196;-59
2022/07/14 09:39:54;;;;;;;4.18;2.05;;;32.30;27.50;;;41.10;15.66;101825.63;5093734;28;20188;-59
2022/07/14 09:42:41;;;;;;;3.25;2.25;;;32.80;26.40;;;41.15;15.48;101828.13;5093222;28;20208;-60
2022/07/14 09:45:11;;;;;;;5.38;2.75;;;33.10;26.30;;;40.15;16.45;101817.34;5104759;28;20200;-60
2022/07/14 09:48:00;;;;;;;4.05;2.33;;;33.30;25.60;;;38.78;17.17;101812.63;5113507;28;20184;-59
2022/07/14 09:50:50;;;;;;;3.83;1.70;;;33.10;25.30;;;37.30;18.29;101813.75;5111899;28;20195;-59
2022/07/14 09:53:22;;;;;;;4.10;1.73;;;32.40;26.00;;;36.47;19.66;101811.59;5113704;28;20196;-59
2022/07/14 09:55:59;;;;;;;4.27;1.77;;;31.90;26.90;;;36.49;19.26;101804.66;5114268;28;20201;-59
2022/07/14 09:58:31;;;;;;;2.97;1.53;;;31.50;27.90;;;36.60;19.70;101805.97;5113218;28;20220;-59
2022/07/14 10:01:08;;;;;;;4.67;1.63;;;31.30;28.40;;;36.24;19.73;101805.41;5106337;28;20295;-59
2022/07/14 10:03:40;;;;;;;4.60;1.73;;;31.10;28.40;;;35.50;20.29;101804.50;5113156;28;20175;-58
2022/07/14 10:06:10;;;;;;;3.73;2.37;;;30.90;28.60;;;34.79;20.89;101804.69;5113574;28;20266;-59
2022/07/14 10:09:00;;;;;;;4.33;3.00;;;30.50;28.70;;;34.03;22.23;101809.09;5113259;28;20552;-59
2022/07/14 10:11:29;;;;;;;5.67;2.30;;;30.00;29.80;;;33.49;23.00;101804.41;5113114;28;20207;-59
2022/07/14 10:13:58;;;;;;;4.17;1.80;;;29.60;30.70;;;33.21;23.19;101798.06;5112972;28;20238;-60
2022/07/14 10:16:32;;;;;;;3.67;2.00;;;29.10;30.90;;;33.83;22.52;101802.09;5112287;28;20289;-60
2022/07/14 10:19:02;;;;;;;4.03;1.90;;;29.00;31.00;;;34.18;22.14;101806.06;5096114;28;20187;-60
2022/07/14 10:21:39;;;;;;;3.43;2.23;;;29.00;30.90;;;34.14;21.72;101804.25;5092528;28;20212;-60
2022/07/14 10:24:08;;;;;;;4.43;2.27;;;29.00;30.50;;;34.09;21.79;101807.09;5093410;28;20265;-60
2022/07/14 10:26:37;;;;;;;6.00;2.07;;;29.00;30.40;;;34.43;21.87;101799.22;5092474;28;20208;-59